Time;durP1;ratioP1;P1;durP2;ratioP2;P2;SDS_P1;SDS_P2;PMS_P1;PMS_P2;Temp;Humidity;BMP_temperature;BMP_pressure;BME280_temperature;BME280_humidity;BME280_pressure;Samples;Min_cycle;Max_cycle;Signal;HPM_P1;HPM_P2
2022/08/22 00:01:18;;;;;;;0.50;0.50;;;18.70;99.20;;;;;;5047543;28;21146;-61
2022/08/22 00:04:05;;;;;;;0.40;0.40;;;18.70;99.40;;;;;;5040187;28;20532;-61
2022/08/22 00:06:38;;;;;;;0.30;0.30;;;18.60;99.40;;;;;;5044104;28;20445;-61
2022/08/22 00:09:14;;;;;;;0.47;0.35;;;18.50;99.60;;;;;;5045539;28;20491;-61
2022/08/22 00:11:52;;;;;;;0.60;0.40;;;18.40;99.70;;;;;;5048326;28;20459;-61
2022/08/22 00:14:40;;;;;;;0.38;0.38;;;18.50;99.80;;;;;;5046337;28;20421;-61
2022/08/22 00:17:13;;;;;;;0.38;0.38;;;18.40;99.90;;;;;;5043685;28;20469;-61
2022/08/22 00:19:58;;;;;;;0.30;0.30;;;18.30;99.90;;;;;;5039671;28;20436;-60
2022/08/22 00:22:47;;;;;;;1.20;0.50;;;18.10;99.90;;;;;;5043990;28;20468;-61
2022/08/22 00:25:30;;;;;;;0.50;0.50;;;18.10;99.90;;;;;;5042933;28;20465;-61
2022/08/22 00:28:27;;;;;;;0.63;0.43;;;17.90;99.90;;;;;;5041218;28;20516;-60
2022/08/22 00:31:25;;;;;;;0.40;0.40;;;17.80;99.90;;;;;;5056406;28;20430;-60
2022/08/22 00:34:10;;;;;;;0.30;0.30;;;17.70;99.90;;;;;;5071421;28;20919;-60
2022/08/22 00:37:15;;;;;;;0.73;0.70;;;17.70;99.90;;;;;;5042829;28;20512;-61
2022/08/22 00:39:59;;;;;;;0.30;0.30;;;17.60;99.90;;;;;;5043805;28;20474;-60
2022/08/22 00:43:07;;;;;;;0.60;0.60;;;17.40;99.90;;;;;;5045566;28;20429;-61
2022/08/22 00:45:55;;;;;;;0.40;0.40;;;17.20;99.90;;;;;;5043093;28;22177;-61
2022/08/22 00:48:58;;;;;;;0.35;0.35;;;17.00;99.90;;;;;;5037243;28;20429;-61
2022/08/22 00:51:43;;;;;;;0.40;0.40;;;17.00;99.90;;;;;;5043541;28;20527;-60
2022/08/22 00:54:29;;;;;;;0.40;0.40;;;17.00;99.90;;;;;;5041598;28;20436;-61
2022/08/22 00:57:17;;;;;;;0.40;0.40;;;17.00;99.90;;;;;;5043943;28;20906;-61
2022/08/22 01:00:11;;;;;;;0.30;0.30;;;16.90;99.90;;;;;;5043260;28;20441;-61
2022/08/22 01:02:39;;;;;;;0.32;0.32;;;16.90;99.90;;;;;;5040767;28;20456;-60
2022/08/22 01:05:39;;;;;;;0.45;0.45;;;17.00;99.90;;;;;;5055926;28;20430;-60
2022/08/22 01:08:57;;;;;;;0.32;0.32;;;16.90;99.90;;;;;;5044562;28;20934;-61
2022/08/22 01:11:56;;;;;;;0.30;0.30;;;16.90;99.90;;;;;;5055243;28;20442;-61
2022/08/22 01:14:40;;;;;;;0.38;0.38;;;16.90;99.90;;;;;;5040042;28;20532;-61
2022/08/22 01:17:31;;;;;;;0.40;0.40;;;16.90;99.90;;;;;;5040365;28;20792;-60
2022/08/22 01:20:10;;;;;;;0.30;0.30;;;16.90;99.90;;;;;;5034723;28;20433;-60
2022/08/22 01:23:14;;;;;;;0.40;0.40;;;16.90;99.90;;;;;;5041920;28;20469;-60
2022/08/22 01:26:02;;;;;;;0.60;0.50;;;16.90;99.90;;;;;;5043339;28;20564;-60
2022/08/22 01:28:44;;;;;;;0.40;0.40;;;16.90;99.90;;;;;;5038022;28;20464;-61
2022/08/22 01:31:50;;;;;;;0.45;0.40;;;16.90;99.90;;;;;;5040199;28;20461;-61
2022/08/22 01:34:36;;;;;;;0.33;0.33;;;16.90;99.90;;;;;;5037195;28;20435;-61
2022/08/22 01:37:30;;;;;;;0.47;0.47;;;16.90;99.90;;;;;;5040573;28;20520;-61
2022/08/22 01:40:25;;;;;;;0.50;0.50;;;16.80;99.90;;;;;;5042089;28;20425;-60
2022/08/22 01:42:58;;;;;;;0.40;0.40;;;16.80;99.90;;;;;;5042313;28;20460;-61
2022/08/22 01:45:35;;;;;;;0.40;0.40;;;16.70;99.90;;;;;;5039110;28;20427;-60
2022/08/22 01:48:21;;;;;;;0.30;0.30;;;16.60;99.90;;;;;;5044817;28;20471;-60
2022/08/22 01:50:53;;;;;;;0.40;0.40;;;16.50;99.90;;;;;;5040792;28;20442;-61
2022/08/22 01:53:45;;;;;;;0.40;0.40;;;16.50;99.90;;;;;;5039092;28;20437;-60
2022/08/22 01:56:17;;;;;;;0.35;0.35;;;16.40;99.90;;;;;;5014017;28;20980;-60
2022/08/22 01:59:00;;;;;;;0.38;0.38;;;16.40;99.90;;;;;;5044690;28;20465;-61
2022/08/22 02:01:48;;;;;;;0.40;0.40;;;16.30;99.90;;;;;;5044118;28;20518;-61
2022/08/22 02:04:17;;;;;;;0.60;0.60;;;16.30;99.90;;;;;;5048213;28;20453;-60
2022/08/22 02:07:03;;;;;;;0.70;0.60;;;16.20;99.90;;;;;;5046687;28;20427;-60
2022/08/22 02:09:44;;;;;;;0.40;0.40;;;16.20;99.90;;;;;;5040597;28;20508;-60
2022/08/22 02:12:34;;;;;;;0.40;0.40;;;16.10;99.90;;;;;;5044419;28;20436;-60
2022/08/22 02:15:21;;;;;;;0.50;0.50;;;16.10;99.90;;;;;;5046210;28;20436;-60
2022/08/22 02:17:51;;;;;;;0.43;0.43;;;16.10;99.90;;;;;;5048823;28;20433;-61
2022/08/22 02:20:40;;;;;;;0.32;0.32;;;16.10;99.90;;;;;;5046695;28;20433;-61
2022/08/22 02:23:17;;;;;;;0.35;0.35;;;16.10;99.90;;;;;;5048306;28;20435;-60
2022/08/22 02:25:50;;;;;;;0.57;0.57;;;16.10;99.90;;;;;;5047565;28;20465;-60
2022/08/22 02:28:54;;;;;;;0.30;0.30;;;16.00;99.90;;;;;;5048369;28;20916;-60
2022/08/22 02:31:45;;;;;;;0.40;0.40;;;16.00;99.90;;;;;;5013366;28;20997;-60
2022/08/22 02:34:33;;;;;;;0.40;0.40;;;16.00;99.90;;;;;;5044789;28;20863;-60
2022/08/22 02:37:32;;;;;;;0.40;0.40;;;16.00;99.90;;;;;;5050230;28;20452;-60
2022/08/22 02:40:32;;;;;;;0.60;0.60;;;16.00;99.90;;;;;;5039730;28;20428;-61
2022/08/22 02:43:14;;;;;;;0.40;0.40;;;16.00;99.90;;;;;;5060136;28;20483;-60
2022/08/22 02:45:54;;;;;;;0.60;0.60;;;15.90;99.90;;;;;;5044781;28;20438;-60
2022/08/22 02:48:36;;;;;;;0.45;0.45;;;15.90;99.90;;;;;;5049367;28;20456;-60
2022/08/22 02:51:40;;;;;;;0.40;0.40;;;15.90;99.90;;;;;;5045363;28;20425;-61
2022/08/22 02:54:41;;;;;;;0.40;0.40;;;15.90;99.90;;;;;;5043293;28;20504;-60
2022/08/22 02:57:25;;;;;;;0.50;0.50;;;15.80;99.90;;;;;;5049362;28;20504;-60
2022/08/22 03:00:20;;;;;;;0.37;0.37;;;15.70;99.90;;;;;;5042223;28;20429;-60
2022/08/22 03:03:20;;;;;;;0.40;0.40;;;15.70;99.90;;;;;;5046344;28;20425;-60
2022/08/22 03:06:15;;;;;;;0.50;0.50;;;15.60;99.90;;;;;;5046411;28;20427;-60
2022/08/22 03:09:20;;;;;;;0.40;0.40;;;15.60;99.90;;;;;;5040565;28;20465;-60
2022/08/22 03:12:28;;;;;;;2.50;0.47;;;15.60;99.90;;;;;;5044539;28;20982;-60
2022/08/22 03:15:06;;;;;;;0.30;0.30;;;15.50;99.90;;;;;;4984745;28;20432;-60
2022/08/22 03:18:15;;;;;;;0.30;0.30;;;15.40;99.90;;;;;;4987535;28;20473;-60
2022/08/22 03:20:50;;;;;;;0.50;0.50;;;15.40;99.90;;;;;;4906967;29;20542;-60
2022/08/22 03:23:36;;;;;;;0.40;0.40;;;15.20;99.90;;;;;;4898425;29;20445;-60
2022/08/22 03:26:28;;;;;;;0.35;0.35;;;15.20;99.90;;;;;;4901566;29;20457;-60
2022/08/22 03:29:30;;;;;;;0.57;0.57;;;15.10;99.90;;;;;;4910041;29;20441;-60
2022/08/22 03:32:19;;;;;;;0.47;0.47;;;15.10;99.90;;;;;;4893298;29;21005;-60
2022/08/22 03:35:02;;;;;;;0.45;0.45;;;15.00;99.90;;;;;;4887371;29;20523;-61
2022/08/22 03:37:39;;;;;;;0.47;0.47;;;15.00;99.90;;;;;;4892985;29;20486;-60
2022/08/22 03:40:28;;;;;;;0.40;0.40;;;15.00;99.90;;;;;;4885202;29;20438;-60
2022/08/22 03:43:00;;;;;;;0.52;0.32;;;15.00;99.90;;;;;;4891776;29;20461;-60
2022/08/22 03:46:01;;;;;;;1.50;0.67;;;15.00;99.90;;;;;;4907491;29;20501;-60
2022/08/22 03:48:46;;;;;;;0.40;0.40;;;14.90;99.90;;;;;;4929241;29;20439;-60
2022/08/22 03:51:25;;;;;;;0.50;0.50;;;14.90;99.90;;;;;;4949833;28;20438;-60
2022/08/22 03:54:21;;;;;;;0.45;0.45;;;14.90;99.90;;;;;;5002589;28;20886;-60
2022/08/22 03:57:09;;;;;;;0.60;0.60;;;14.80;99.90;;;;;;4982205;28;20731;-60
2022/08/22 03:59:36;;;;;;;0.43;0.43;;;14.80;99.90;;;;;;5005015;28;20463;-60
2022/08/22 04:02:32;;;;;;;1.00;0.60;;;14.70;99.90;;;;;;5005449;28;20507;-60
2022/08/22 04:05:53;;;;;;;0.50;0.50;;;14.70;99.90;;;;;;5000777;28;20459;-60
2022/08/22 04:08:36;;;;;;;0.50;0.50;;;14.70;99.90;;;;;;5025963;28;20460;-60
2022/08/22 04:11:47;;;;;;;0.30;0.30;;;14.80;99.90;;;;;;5041422;28;20517;-60
2022/08/22 04:14:21;;;;;;;0.45;0.45;;;14.80;99.90;;;;;;5043690;28;20425;-60
2022/08/22 04:16:57;;;;;;;0.50;0.50;;;14.80;99.90;;;;;;5046031;28;20439;-60
2022/08/22 04:19:30;;;;;;;0.73;0.47;;;14.80;99.90;;;;;;5039380;28;20441;-60
2022/08/22 04:22:15;;;;;;;0.50;0.50;;;14.80;99.90;;;;;;5033910;28;21007;-60
2022/08/22 04:24:52;;;;;;;0.50;0.50;;;14.70;99.90;;;;;;5035662;28;20437;-60
2022/08/22 04:27:46;;;;;;;0.80;0.68;;;14.70;99.90;;;;;;5042327;28;20471;-60
2022/08/22 04:30:30;;;;;;;0.52;0.52;;;14.60;99.90;;;;;;5037332;28;21150;-60
2022/08/22 04:33:03;;;;;;;0.85;0.50;;;14.60;99.90;;;;;;5044371;28;20512;-60
2022/08/22 04:35:36;;;;;;;0.50;0.50;;;14.60;99.90;;;;;;5044014;28;20491;-60
2022/08/22 04:38:40;;;;;;;1.10;0.60;;;14.60;99.90;;;;;;5042368;28;20429;-60
2022/08/22 04:41:40;;;;;;;0.43;0.43;;;14.60;99.90;;;;;;5039563;28;20873;-60
2022/08/22 04:44:22;;;;;;;0.45;0.45;;;14.60;99.90;;;;;;4980622;28;20466;-60
2022/08/22 04:47:09;;;;;;;0.80;0.67;;;14.70;99.90;;;;;;4995611;28;20483;-60
2022/08/22 04:49:36;;;;;;;0.50;0.50;;;14.80;99.90;;;;;;4999057;28;20495;-60
2022/08/22 04:52:03;;;;;;;0.50;0.40;;;14.90;99.90;;;;;;4999835;28;20962;-60
2022/08/22 04:55:06;;;;;;;0.50;0.50;;;15.00;99.90;;;;;;4995428;28;20448;-60
2022/08/22 04:58:05;;;;;;;0.70;0.50;;;15.10;99.90;;;;;;4999813;28;20472;-60
2022/08/22 05:00:40;;;;;;;0.50;0.50;;;15.30;99.90;;;;;;4990778;28;20442;-60
2022/08/22 05:03:13;;;;;;;0.40;0.40;;;15.30;99.90;;;;;;4986674;28;20433;-60
2022/08/22 05:05:41;;;;;;;0.60;0.60;;;15.40;99.90;;;;;;4998076;28;20468;-60
2022/08/22 05:08:12;;;;;;;0.57;0.57;;;15.50;99.90;;;;;;4975642;28;20494;-60
2022/08/22 05:10:45;;;;;;;0.50;0.50;;;15.60;99.90;;;;;;4997835;28;20538;-60
2022/08/22 05:13:19;;;;;;;0.45;0.45;;;15.70;99.90;;;;;;4977109;28;20461;-60
2022/08/22 05:15:51;;;;;;;0.50;0.50;;;15.80;99.90;;;;;;4987422;28;20446;-60
2022/08/22 05:18:32;;;;;;;1.60;0.70;;;15.90;99.90;;;;;;4994017;28;20429;-60
2022/08/22 05:21:03;;;;;;;0.50;0.50;;;16.00;99.90;;;;;;5005315;28;20516;-60
2022/08/22 05:23:41;;;;;;;0.60;0.60;;;16.10;99.90;;;;;;5041007;28;20528;-60
2022/08/22 05:26:10;;;;;;;0.47;0.47;;;16.20;99.90;;;;;;5038110;28;20433;-60
2022/08/22 05:28:42;;;;;;;0.50;0.50;;;16.30;99.90;;;;;;5038952;28;20481;-60
2022/08/22 05:31:13;;;;;;;0.43;0.43;;;16.40;99.90;;;;;;5044273;28;20425;-60
2022/08/22 05:33:50;;;;;;;0.47;0.47;;;16.50;99.90;;;;;;5041142;28;20429;-61
2022/08/22 05:36:24;;;;;;;0.90;0.50;;;16.60;99.90;;;;;;5046775;28;20440;-60
2022/08/22 05:38:59;;;;;;;0.70;0.52;;;16.70;99.90;;;;;;5046137;28;21014;-60
2022/08/22 05:41:31;;;;;;;1.90;0.50;;;16.80;99.90;;;;;;5048623;28;21164;-60
2022/08/22 05:43:58;;;;;;;0.68;0.68;;;17.00;99.90;;;;;;5046362;28;20475;-60
2022/08/22 05:46:37;;;;;;;0.80;0.40;;;17.10;99.90;;;;;;5042325;28;20434;-60
2022/08/22 05:49:07;;;;;;;0.43;0.43;;;17.30;99.90;;;;;;5043615;28;20433;-60
2022/08/22 05:51:36;;;;;;;0.80;0.50;;;17.40;99.90;;;;;;5074821;28;20440;-60
2022/08/22 05:54:20;;;;;;;0.40;0.40;;;17.50;99.90;;;;;;5039419;28;20456;-60
2022/08/22 05:57:19;;;;;;;0.50;0.50;;;17.70;99.90;;;;;;5042131;28;20447;-59
2022/08/22 05:59:50;;;;;;;0.60;0.60;;;17.90;99.90;;;;;;5040848;28;20439;-59
2022/08/22 06:02:47;;;;;;;0.50;0.50;;;18.20;99.90;;;;;;5038667;28;20433;-60
2022/08/22 06:05:24;;;;;;;0.40;0.40;;;18.70;99.90;;;;;;5043999;28;20468;-60
2022/08/22 06:07:59;;;;;;;0.50;0.50;;;19.40;99.90;;;;;;5044868;28;20433;-60
2022/08/22 06:10:42;;;;;;;0.45;0.45;;;20.20;99.90;;;;;;5039054;28;20444;-60
2022/08/22 06:13:37;;;;;;;0.55;0.40;;;20.80;99.90;;;;;;5048952;28;21067;-60
2022/08/22 06:16:22;;;;;;;0.60;0.60;;;21.40;99.90;;;;;;5036470;28;20440;-60
2022/08/22 06:18:51;;;;;;;0.30;0.30;;;21.80;99.90;;;;;;5041549;28;20593;-60
2022/08/22 06:21:28;;;;;;;0.55;0.55;;;22.40;99.90;;;;;;5043834;28;20421;-60
2022/08/22 06:24:15;;;;;;;0.50;0.40;;;23.10;99.90;;;;;;5049371;28;20911;-61
2022/08/22 06:26:45;;;;;;;0.50;0.50;;;23.50;99.90;;;;;;5046010;28;20952;-59
2022/08/22 06:29:28;;;;;;;0.50;0.50;;;23.50;99.90;;;;;;5046251;28;20440;-59
2022/08/22 06:31:57;;;;;;;0.45;0.45;;;23.70;99.90;;;;;;5049318;28;20482;-60
2022/08/22 06:34:33;;;;;;;2.30;0.70;;;24.10;99.90;;;;;;5046673;28;20451;-62
2022/08/22 06:37:04;;;;;;;0.45;0.45;;;24.30;99.30;;;;;;5050043;28;20433;-59
2022/08/22 06:39:42;;;;;;;0.40;0.40;;;24.40;99.20;;;;;;5049106;28;20429;-62
2022/08/22 06:42:26;;;;;;;0.52;0.52;;;24.60;99.00;;;;;;5043339;28;20487;-61
2022/08/22 06:44:59;;;;;;;0.40;0.40;;;24.90;98.70;;;;;;5047899;28;20494;-61
2022/08/22 06:47:31;;;;;;;0.52;0.52;;;24.80;98.80;;;;;;5044792;28;20499;-63
2022/08/22 06:50:04;;;;;;;0.65;0.50;;;25.00;98.40;;;;;;5046477;28;20432;-62
2022/08/22 06:52:48;;;;;;;0.57;0.57;;;25.10;98.40;;;;;;5042263;28;20437;-63
2022/08/22 06:55:16;;;;;;;0.55;0.55;;;24.70;98.20;;;;;;5043063;28;20440;-64
2022/08/22 06:57:52;;;;;;;0.70;0.70;;;24.10;98.60;;;;;;5041232;28;20486;-62
2022/08/22 07:00:19;;;;;;;0.50;0.50;;;23.40;99.20;;;;;;5046260;28;20437;-60
2022/08/22 07:02:55;;;;;;;0.63;0.63;;;22.90;99.90;;;;;;5043568;28;20854;-61
2022/08/22 07:05:27;;;;;;;0.63;0.63;;;22.60;99.90;;;;;;5037139;28;20430;-62
2022/08/22 07:07:54;;;;;;;0.60;0.60;;;22.50;99.90;;;;;;5038336;28;20441;-62
2022/08/22 07:10:23;;;;;;;0.70;0.70;;;22.10;99.90;;;;;;5044905;28;20504;-62
2022/08/22 07:12:52;;;;;;;0.52;0.52;;;22.00;99.90;;;;;;5044894;28;20832;-62
2022/08/22 07:15:35;;;;;;;0.60;0.60;;;22.00;99.90;;;;;;5048470;28;20456;-61
2022/08/22 07:18:07;;;;;;;0.50;0.50;;;22.40;99.90;;;;;;5045914;28;20436;-61
2022/08/22 07:20:37;;;;;;;0.80;0.80;;;22.80;99.90;;;;;;5044757;28;20445;-61
2022/08/22 07:23:30;;;;;;;0.50;0.50;;;23.40;99.90;;;;;;5046050;28;20436;-62
2022/08/22 07:26:31;;;;;;;0.60;0.60;;;24.80;99.90;;;;;;5031914;28;20465;-62
2022/08/22 07:29:08;;;;;;;0.80;0.57;;;26.30;98.80;;;;;;5074149;28;20434;-62
2022/08/22 07:31:50;;;;;;;0.52;0.52;;;27.00;97.00;;;;;;5048897;28;20423;-62
2022/08/22 07:34:36;;;;;;;0.60;0.60;;;27.70;96.80;;;;;;5047414;28;20425;-62
2022/08/22 07:37:37;;;;;;;0.60;0.60;;;28.30;95.40;;;;;;5049158;28;20959;-61
2022/08/22 07:40:26;;;;;;;0.80;0.80;;;28.30;95.50;;;;;;5050870;28;20452;-62
2022/08/22 07:43:03;;;;;;;0.63;0.63;;;28.70;95.30;;;;;;5037555;28;22308;-62
2022/08/22 07:45:46;;;;;;;1.20;0.75;;;28.40;94.60;;;;;;5038059;28;21089;-63
2022/08/22 07:48:20;;;;;;;1.30;0.75;;;28.70;94.60;;;;;;5040006;28;20443;-63
2022/08/22 07:51:11;;;;;;;0.90;0.70;;;28.30;94.40;;;;;;5040295;28;20518;-63
2022/08/22 07:53:43;;;;;;;0.68;0.68;;;28.80;94.40;;;;;;5037773;28;20522;-62
2022/08/22 07:56:37;;;;;;;0.70;0.70;;;29.20;94.00;;;;;;5046100;28;20490;-62
2022/08/22 07:59:11;;;;;;;0.60;0.60;;;29.00;93.90;;;;;;5043031;28;20445;-62
2022/08/22 08:01:53;;;;;;;0.70;0.70;;;28.90;93.70;;;;;;5045294;28;20715;-62
2022/08/22 08:04:27;;;;;;;0.70;0.70;;;28.60;94.00;;;;;;5036257;28;20442;-62
2022/08/22 08:06:58;;;;;;;0.73;0.73;;;28.80;94.10;;;;;;5041470;28;20486;-63
2022/08/22 08:09:36;;;;;;;0.80;0.80;;;28.60;94.10;;;;;;5040394;28;20432;-63
2022/08/22 08:12:07;;;;;;;0.60;0.60;;;28.50;94.20;;;;;;5041972;28;21041;-63
2022/08/22 08:14:38;;;;;;;0.60;0.60;;;28.60;94.20;;;;;;5044924;28;20435;-63
2022/08/22 08:17:19;;;;;;;0.80;0.80;;;28.70;94.00;;;;;;5042888;28;20483;-63
2022/08/22 08:19:47;;;;;;;0.70;0.70;;;28.50;93.90;;;;;;5041996;28;20446;-63
2022/08/22 08:22:22;;;;;;;0.73;0.73;;;27.80;94.30;;;;;;5041920;28;20429;-63
2022/08/22 08:24:50;;;;;;;0.70;0.70;;;27.70;94.30;;;;;;5041360;28;20441;-63
2022/08/22 08:30:23;;;;;;;0.70;0.70;;;27.40;94.90;;;;;;5041394;28;20440;-63
2022/08/22 08:32:59;;;;;;;0.55;0.55;;;27.30;95.40;;;;;;5065158;28;20429;-63
2022/08/22 08:35:52;;;;;;;0.80;0.80;;;27.80;95.20;;;;;;5053456;28;20413;-63
2022/08/22 08:38:48;;;;;;;0.80;0.80;;;27.40;94.90;;;;;;5037699;28;20439;-63
2022/08/22 08:41:53;;;;;;;0.70;0.70;;;26.70;95.80;;;;;;5038028;28;20464;-63
2022/08/22 08:44:48;;;;;;;0.68;0.68;;;26.50;96.30;;;;;;4971631;28;20531;-63
2022/08/22 08:47:33;;;;;;;0.73;0.73;;;26.50;96.00;;;;;;4977234;28;20930;-63
2022/08/22 08:50:07;;;;;;;0.80;0.80;;;27.20;96.00;;;;;;4978813;28;20545;-62
2022/08/22 08:52:53;;;;;;;0.77;0.77;;;27.70;95.60;;;;;;4982522;28;20434;-63
2022/08/22 08:55:41;;;;;;;0.90;0.90;;;27.80;95.20;;;;;;4977128;28;20426;-62
2022/08/22 08:58:24;;;;;;;0.73;0.73;;;27.90;95.10;;;;;;4982320;28;20545;-63
2022/08/22 09:01:10;;;;;;;0.98;0.85;;;27.70;95.40;;;;;;4981946;28;20489;-64
2022/08/22 09:04:05;;;;;;;0.75;0.75;;;28.00;94.80;;;;;;4981500;28;20442;-63
2022/08/22 09:07:20;;;;;;;0.82;0.82;;;28.20;94.30;;;;;;4983234;28;20452;-63
2022/08/22 09:09:52;;;;;;;0.80;0.77;;;28.10;94.40;;;;;;4950754;28;20439;-63
2022/08/22 09:12:25;;;;;;;0.57;0.57;;;28.10;94.60;;;;;;4983184;28;20430;-63
2022/08/22 09:15:14;;;;;;;0.70;0.70;;;27.90;94.50;;;;;;4983752;28;21108;-63
2022/08/22 09:17:49;;;;;;;0.90;0.90;;;28.60;94.50;;;;;;4984385;28;20923;-63
2022/08/22 09:20:45;;;;;;;1.13;0.80;;;28.70;94.00;;;;;;4994950;28;20438;-64
2022/08/22 09:23:49;;;;;;;0.80;0.80;;;29.00;94.50;;;;;;5044747;28;20437;-64
2022/08/22 09:26:53;;;;;;;0.85;0.85;;;27.90;93.90;;;;;;5042363;28;20429;-63
2022/08/22 09:29:36;;;;;;;0.70;0.70;;;28.20;94.60;;;;;;5044949;28;20498;-63
2022/08/22 09:32:33;;;;;;;0.80;0.80;;;28.40;94.10;;;;;;5043005;28;20436;-63
2022/08/22 09:35:21;;;;;;;1.30;0.80;;;28.90;94.00;;;;;;5041687;28;20870;-63
2022/08/22 09:38:22;;;;;;;1.00;0.90;;;29.50;94.00;;;;;;5044830;28;20452;-64
2022/08/22 09:41:22;;;;;;;0.93;0.93;;;28.80;93.50;;;;;;5042083;28;20447;-64
2022/08/22 09:44:34;;;;;;;1.00;1.00;;;28.50;94.00;;;;;;5041024;28;20445;-63
2022/08/22 09:47:25;;;;;;;0.75;0.75;;;29.10;94.20;;;;;;5046131;28;20465;-63
2022/08/22 09:50:04;;;;;;;0.80;0.80;;;29.10;93.30;;;;;;5048084;28;20965;-63
2022/08/22 09:53:20;;;;;;;0.75;0.75;;;29.50;93.40;;;;;;5034304;28;20927;-63
2022/08/22 09:56:03;;;;;;;0.70;0.70;;;30.00;93.30;;;;;;5049802;28;20911;-63
2022/08/22 09:58:56;;;;;;;0.73;0.73;;;30.60;92.50;;;;;;5075303;28;20468;-63
2022/08/22 10:01:26;;;;;;;0.70;0.70;;;30.00;92.20;;;;;;5049791;28;20517;-64
2022/08/22 10:04:17;;;;;;;2.30;0.70;;;30.00;91.80;;;;;;5049457;28;20424;-63
2022/08/22 10:07:07;;;;;;;0.70;0.70;;;29.90;92.20;;;;;;5040671;28;20533;-63
2022/08/22 10:09:54;;;;;;;0.80;0.80;;;29.90;92.20;;;;;;5063038;28;20852;-63
2022/08/22 10:12:30;;;;;;;0.60;0.60;;;30.40;91.70;;;;;;5048082;28;20425;-63
2022/08/22 10:15:53;;;;;;;0.93;0.93;;;31.00;90.90;;;;;;5044624;28;20836;-63
2022/08/22 10:18:35;;;;;;;0.65;0.65;;;30.50;90.10;;;;;;4985264;28;20554;-63
2022/08/22 10:21:36;;;;;;;0.70;0.70;;;30.90;90.20;;;;;;4982401;28;20440;-63
2022/08/22 10:24:22;;;;;;;0.70;0.70;;;30.90;87.00;;;;;;4975460;28;20436;-63
2022/08/22 10:27:00;;;;;;;1.20;0.70;;;31.00;86.50;;;;;;4981480;28;21176;-63
2022/08/22 10:29:33;;;;;;;1.73;0.70;;;31.00;87.10;;;;;;4988477;28;20469;-64
2022/08/22 10:32:26;;;;;;;0.60;0.60;;;31.10;86.90;;;;;;4979000;28;20489;-63
2022/08/22 10:35:25;;;;;;;0.68;0.68;;;30.90;85.40;;;;;;4971145;28;20517;-63
2022/08/22 10:38:22;;;;;;;0.50;0.50;;;31.60;86.80;;;;;;4981664;28;20446;-65
2022/08/22 10:40:57;;;;;;;0.70;0.60;;;31.00;85.40;;;;;;4986966;28;20442;-63
2022/08/22 10:43:56;;;;;;;0.67;0.67;;;30.60;85.20;;;;;;4980631;28;20864;-63
2022/08/22 10:46:39;;;;;;;0.52;0.52;;;30.10;86.40;;;;;;4979460;28;20438;-63
2022/08/22 10:49:52;;;;;;;1.30;0.60;;;29.30;86.10;;;;;;4984701;28;21275;-62
2022/08/22 10:52:30;;;;;;;0.60;0.60;;;29.80;86.10;;;;;;4986196;28;20961;-63
2022/08/22 10:55:06;;;;;;;0.50;0.50;;;30.50;84.40;;;;;;5033982;28;20468;-63
2022/08/22 10:57:53;;;;;;;0.70;0.70;;;31.00;83.30;;;;;;5044408;28;20437;-64
2022/08/22 11:00:44;;;;;;;0.52;0.52;;;31.00;83.00;;;;;;5038771;28;20429;-63
2022/08/22 11:03:38;;;;;;;0.60;0.60;;;31.10;84.10;;;;;;5043522;28;20461;-63
2022/08/22 11:06:13;;;;;;;0.50;0.50;;;31.20;81.60;;;;;;5038662;28;20435;-63
2022/08/22 11:08:39;;;;;;;0.50;0.50;;;30.80;81.90;;;;;;5074282;28;20429;-62
2022/08/22 11:11:18;;;;;;;0.50;0.50;;;30.40;82.90;;;;;;5049291;28;20426;-63
2022/08/22 11:14:05;;;;;;;0.80;0.52;;;29.70;83.60;;;;;;5042481;28;20425;-63
2022/08/22 11:16:56;;;;;;;0.70;0.70;;;29.50;84.30;;;;;;5045920;28;20429;-63
2022/08/22 11:19:36;;;;;;;0.60;0.60;;;29.50;85.70;;;;;;5043018;28;20524;-63
2022/08/22 11:22:40;;;;;;;0.50;0.50;;;29.40;84.20;;;;;;5036235;28;20974;-63
2022/08/22 11:25:40;;;;;;;0.60;0.60;;;29.20;85.30;;;;;;5043331;28;20429;-63
2022/08/22 11:28:36;;;;;;;0.70;0.70;;;29.20;85.70;;;;;;5043494;28;20437;-63
2022/08/22 11:31:05;;;;;;;0.50;0.50;;;29.30;85.80;;;;;;4973059;28;20469;-62
2022/08/22 11:34:10;;;;;;;0.70;0.70;;;29.50;85.40;;;;;;5040186;28;20459;-64
2022/08/22 11:36:59;;;;;;;0.43;0.43;;;29.80;84.80;;;;;;5045210;28;20836;-65
2022/08/22 11:39:46;;;;;;;0.50;0.50;;;30.50;83.50;;;;;;5038318;28;20460;-66
2022/08/22 11:42:48;;;;;;;0.60;0.60;;;30.20;83.60;;;;;;5071435;28;20456;-65
2022/08/22 11:45:24;;;;;;;0.70;0.70;;;30.20;84.40;;;;;;5040174;28;20433;-64
2022/08/22 11:48:07;;;;;;;0.52;0.52;;;31.10;82.60;;;;;;5044924;28;20463;-65
2022/08/22 11:50:39;;;;;;;0.65;0.65;;;32.00;81.60;;;;;;5038663;28;20433;-65
2022/08/22 11:53:38;;;;;;;0.57;0.57;;;32.90;80.80;;;;;;5044190;28;21293;-65
2022/08/22 11:56:29;;;;;;;0.50;0.50;;;33.10;80.60;;;;;;5041693;28;20429;-66
2022/08/22 11:59:41;;;;;;;0.80;0.60;;;32.20;81.00;;;;;;5044823;28;20500;-64
2022/08/22 12:02:30;;;;;;;0.60;0.60;;;32.90;81.50;;;;;;5035506;28;20477;-64
2022/08/22 12:05:18;;;;;;;0.70;0.70;;;33.60;78.70;;;;;;5040292;28;20432;-65
2022/08/22 12:08:00;;;;;;;0.68;0.68;;;33.90;78.40;;;;;;5039776;28;20437;-64
2022/08/22 12:10:34;;;;;;;1.10;0.52;;;33.90;76.80;;;;;;5036880;28;20475;-65
2022/08/22 12:13:18;;;;;;;0.50;0.50;;;33.90;77.50;;;;;;5037283;28;20438;-66
2022/08/22 12:16:22;;;;;;;0.73;0.73;;;34.20;78.50;;;;;;5039966;28;20440;-65
2022/08/22 12:19:21;;;;;;;0.55;0.55;;;34.40;76.60;;;;;;5035178;28;20444;-64
2022/08/22 12:22:07;;;;;;;0.60;0.60;;;35.10;77.00;;;;;;5041262;28;20520;-65
2022/08/22 12:25:06;;;;;;;0.60;0.60;;;35.20;76.80;;;;;;5043092;28;20491;-65
2022/08/22 12:27:49;;;;;;;0.60;0.60;;;35.30;74.90;;;;;;5045092;28;20491;-64
2022/08/22 12:30:48;;;;;;;0.60;0.60;;;35.20;74.50;;;;;;5046335;28;20531;-64
2022/08/22 12:34:01;;;;;;;0.60;0.60;;;34.20;74.80;;;;;;5045862;28;20433;-64
2022/08/22 12:36:43;;;;;;;0.40;0.40;;;33.90;77.00;;;;;;5045950;28;20992;-64
2022/08/22 12:39:48;;;;;;;0.40;0.40;;;34.00;75.80;;;;;;5041600;28;20544;-65
2022/08/22 12:42:18;;;;;;;0.50;0.50;;;32.20;76.30;;;;;;5047066;28;20454;-64
2022/08/22 12:45:09;;;;;;;0.47;0.47;;;31.30;77.90;;;;;;5035898;28;20435;-65
2022/08/22 12:47:54;;;;;;;0.60;0.60;;;31.60;77.80;;;;;;5029703;28;20501;-64
2022/08/22 12:50:43;;;;;;;0.57;0.57;;;32.40;76.60;;;;;;5046274;28;20460;-64
2022/08/22 12:53:25;;;;;;;0.98;0.40;;;33.10;74.50;;;;;;5033588;28;20817;-65
2022/08/22 12:56:07;;;;;;;0.30;0.30;;;34.00;76.20;;;;;;5036248;28;20447;-65
2022/08/22 12:59:09;;;;;;;0.70;0.70;;;33.90;73.90;;;;;;5035164;28;20522;-64
2022/08/22 13:01:44;;;;;;;0.50;0.50;;;33.70;74.80;;;;;;5045938;28;20425;-65
2022/08/22 13:04:32;;;;;;;0.50;0.50;;;32.70;74.20;;;;;;5043149;28;20463;-64
2022/08/22 13:07:47;;;;;;;0.40;0.40;;;32.80;74.30;;;;;;5040991;28;20430;-64
2022/08/22 13:10:46;;;;;;;0.57;0.57;;;32.80;74.30;;;;;;4981255;28;20925;-65
2022/08/22 13:13:51;;;;;;;0.50;0.50;;;33.40;74.80;;;;;;4982181;28;20465;-65
2022/08/22 13:16:23;;;;;;;0.50;0.50;;;34.30;73.70;;;;;;4900285;29;20503;-65
2022/08/22 13:19:01;;;;;;;0.52;0.52;;;34.50;72.30;;;;;;4907665;29;20437;-64
2022/08/22 13:21:44;;;;;;;0.43;0.43;;;34.60;72.10;;;;;;4907911;29;20448;-64
2022/08/22 13:24:27;;;;;;;0.50;0.50;;;34.70;72.40;;;;;;4899731;29;20444;-65
2022/08/22 13:27:14;;;;;;;0.50;0.50;;;34.30;70.60;;;;;;4898448;29;20952;-63
2022/08/22 13:29:48;;;;;;;0.40;0.40;;;33.60;73.10;;;;;;4908087;29;20940;-65
2022/08/22 13:32:29;;;;;;;0.50;0.50;;;32.40;73.20;;;;;;4907100;29;20474;-64
2022/08/22 13:34:59;;;;;;;0.50;0.50;;;31.20;75.10;;;;;;4908188;29;20437;-65
2022/08/22 13:37:35;;;;;;;0.40;0.40;;;31.50;76.70;;;;;;4898578;29;20448;-64
2022/08/22 13:40:09;;;;;;;0.50;0.50;;;32.00;74.90;;;;;;4909715;28;20451;-65
2022/08/22 13:42:45;;;;;;;0.60;0.60;;;33.10;74.10;;;;;;4991276;28;20513;-64
2022/08/22 13:45:24;;;;;;;0.52;0.52;;;33.80;73.60;;;;;;4987090;28;20590;-65
2022/08/22 13:48:13;;;;;;;0.60;0.60;;;33.80;73.60;;;;;;4985552;28;20426;-66
2022/08/22 13:51:20;;;;;;;0.80;0.50;;;34.00;72.40;;;;;;5009511;28;20439;-65
2022/08/22 13:54:10;;;;;;;0.60;0.60;;;34.50;71.80;;;;;;5040830;28;20433;-64
2022/08/22 13:56:47;;;;;;;0.60;0.60;;;35.20;70.50;;;;;;5018572;28;20516;-65
2022/08/22 13:59:27;;;;;;;0.50;0.50;;;35.90;70.60;;;;;;5042811;28;20975;-65
2022/08/22 14:02:47;;;;;;;0.63;0.63;;;35.90;70.10;;;;;;5041564;28;20421;-65
2022/08/22 14:05:26;;;;;;;0.52;0.52;;;36.50;69.80;;;;;;5046263;28;20436;-65
2022/08/22 14:08:05;;;;;;;0.50;0.50;;;36.80;67.80;;;;;;5038875;28;20929;-65
2022/08/22 14:10:44;;;;;;;0.57;0.57;;;36.60;67.70;;;;;;5036797;28;20425;-65
2022/08/22 14:13:55;;;;;;;0.45;0.45;;;37.20;67.60;;;;;;5042143;28;20465;-65
2022/08/22 14:16:37;;;;;;;0.80;0.80;;;36.80;67.00;;;;;;5034432;28;20516;-63
2022/08/22 14:19:28;;;;;;;0.50;0.50;;;36.00;67.90;;;;;;5043422;28;20519;-64
2022/08/22 14:22:02;;;;;;;1.40;0.47;;;36.30;67.60;;;;;;5044152;28;20440;-64
2022/08/22 14:24:36;;;;;;;0.45;0.45;;;35.70;68.50;;;;;;5040763;28;20933;-65